Time;durP1;ratioP1;P1;durP2;ratioP2;P2;SDS_P1;SDS_P2;PMS_P1;PMS_P2;Temp;Humidity;BMP_temperature;BMP_pressure;BME280_temperature;BME280_humidity;BME280_pressure;Samples;Min_cycle;Max_cycle;Signal;HPM_P1;HPM_P2
2021/06/30 00:01:06;;;;;;;0.25;0.25;;;25.70;48.90;;;;;;5025273;28;20113;-60
2021/06/30 00:03:32;;;;;;;0.52;0.43;;;25.70;48.90;;;;;;5023177;28;20446;-60
2021/06/30 00:05:58;;;;;;;0.50;0.28;;;25.70;48.90;;;;;;5024796;28;20108;-59
2021/06/30 00:08:24;;;;;;;0.30;0.30;;;25.70;48.90;;;;;;5021402;28;20029;-61
2021/06/30 00:10:50;;;;;;;0.30;0.30;;;25.70;49.00;;;;;;5025867;28;20029;-60
2021/06/30 00:13:16;;;;;;;0.50;0.30;;;25.70;49.00;;;;;;5023647;28;20037;-58
2021/06/30 00:15:43;;;;;;;0.30;0.30;;;25.60;49.00;;;;;;5024170;28;20453;-59
2021/06/30 00:18:09;;;;;;;0.25;0.20;;;25.70;49.10;;;;;;5017992;28;20049;-58
2021/06/30 00:20:36;;;;;;;1.00;0.30;;;25.60;49.10;;;;;;5024579;28;20036;-58
2021/06/30 00:23:05;;;;;;;0.57;0.20;;;25.60;49.10;;;;;;5021567;28;20394;-60
2021/06/30 00:25:31;;;;;;;0.20;0.20;;;25.60;49.10;;;;;;5024682;28;20088;-61
2021/06/30 00:27:57;;;;;;;0.47;0.30;;;25.60;49.10;;;;;;5023415;28;20022;-61
2021/06/30 00:30:23;;;;;;;0.30;0.30;;;25.60;49.80;;;;;;5024666;28;20449;-61
2021/06/30 00:32:49;;;;;;;0.30;0.30;;;25.60;49.10;;;;;;5023058;28;20040;-57
2021/06/30 00:35:16;;;;;;;0.30;0.30;;;25.60;49.20;;;;;;5025712;28;20400;-60
2021/06/30 00:37:42;;;;;;;0.32;0.30;;;25.60;49.20;;;;;;5020450;28;20467;-59
2021/06/30 00:40:10;;;;;;;0.28;0.28;;;25.60;49.20;;;;;;5023141;28;20030;-62
2021/06/30 00:42:35;;;;;;;0.40;0.30;;;25.60;49.20;;;;;;5022575;28;20068;-61
2021/06/30 00:45:04;;;;;;;0.28;0.25;;;25.60;49.30;;;;;;5024547;28;20057;-59
2021/06/30 00:47:30;;;;;;;0.30;0.30;;;25.60;49.30;;;;;;5022952;28;20029;-60
2021/06/30 00:49:56;;;;;;;0.20;0.20;;;25.60;49.20;;;;;;5021228;28;20030;-59
2021/06/30 00:52:22;;;;;;;0.20;0.20;;;25.60;49.20;;;;;;5021697;28;20109;-57
2021/06/30 00:54:48;;;;;;;0.35;0.20;;;25.60;49.20;;;;;;5023475;28;20061;-58
2021/06/30 00:57:17;;;;;;;0.20;0.20;;;25.60;49.20;;;;;;5023151;28;20087;-62
2021/06/30 00:59:42;;;;;;;0.22;0.20;;;25.60;49.20;;;;;;5020851;28;20120;-60
2021/06/30 01:02:08;;;;;;;0.30;0.20;;;25.50;49.20;;;;;;5022163;28;20424;-59
2021/06/30 01:04:34;;;;;;;0.38;0.20;;;25.50;49.20;;;;;;5022402;28;20433;-60
2021/06/30 01:07:00;;;;;;;0.20;0.20;;;25.50;49.20;;;;;;5019260;28;20071;-62
2021/06/30 01:09:26;;;;;;;0.60;0.30;;;25.50;49.20;;;;;;5022827;28;20109;-61
2021/06/30 01:11:51;;;;;;;0.20;0.20;;;25.50;49.20;;;;;;5022367;28;20352;-59
2021/06/30 01:14:26;;;;;;;0.30;0.20;;;25.50;49.20;;;;;;5020083;28;20045;-58
2021/06/30 01:16:52;;;;;;;0.13;0.10;;;25.50;49.10;;;;;;5019267;28;20107;-59
2021/06/30 01:19:19;;;;;;;0.25;0.20;;;25.50;49.20;;;;;;5023167;28;20045;-58
2021/06/30 01:21:46;;;;;;;0.30;0.30;;;25.50;49.20;;;;;;5019890;28;20080;-59
2021/06/30 01:24:11;;;;;;;0.22;0.10;;;25.50;49.20;;;;;;5023772;28;20040;-61
2021/06/30 01:26:37;;;;;;;0.15;0.15;;;25.40;49.20;;;;;;5021090;28;20021;-59
2021/06/30 01:29:03;;;;;;;0.32;0.20;;;25.40;49.20;;;;;;5021131;28;20021;-60
2021/06/30 01:31:29;;;;;;;0.13;0.10;;;25.40;49.20;;;;;;5023813;28;20368;-61
2021/06/30 01:33:55;;;;;;;0.30;0.30;;;25.40;49.20;;;;;;5022540;28;20038;-58
2021/06/30 01:36:20;;;;;;;0.10;0.10;;;25.40;49.20;;;;;;5018584;28;20414;-59
2021/06/30 01:38:46;;;;;;;0.20;0.20;;;25.40;49.20;;;;;;5022915;28;20113;-60
2021/06/30 01:41:14;;;;;;;0.20;0.20;;;25.40;49.20;;;;;;5021192;28;20109;-58
2021/06/30 01:43:41;;;;;;;0.20;0.20;;;25.40;49.20;;;;;;5022749;28;20319;-60
2021/06/30 01:46:07;;;;;;;0.50;0.20;;;25.40;49.20;;;;;;5023428;28;20131;-63
2021/06/30 01:48:33;;;;;;;0.10;0.10;;;25.40;49.20;;;;;;5019396;28;20029;-59
2021/06/30 01:51:00;;;;;;;0.20;0.20;;;25.40;49.20;;;;;;5020390;28;20025;-59
2021/06/30 01:53:27;;;;;;;0.20;0.10;;;25.40;49.20;;;;;;5020610;28;20061;-62
2021/06/30 01:55:53;;;;;;;0.65;0.30;;;25.30;49.20;;;;;;5022520;28;20108;-60
2021/06/30 01:58:21;;;;;;;0.30;0.20;;;25.30;49.10;;;;;;5018489;28;20115;-59
2021/06/30 02:00:54;;;;;;;0.15;0.15;;;25.30;49.10;;;;;;5019377;28;20025;-55
2021/06/30 02:03:20;;;;;;;0.17;0.10;;;25.30;49.10;;;;;;5021838;28;20037;-57
2021/06/30 02:05:46;;;;;;;0.20;0.20;;;25.30;49.10;;;;;;5021396;28;20335;-59
2021/06/30 02:08:13;;;;;;;0.17;0.17;;;25.30;49.20;;;;;;5022585;28;20037;-60
2021/06/30 02:10:40;;;;;;;0.25;0.25;;;25.30;49.10;;;;;;5022227;28;20034;-61
2021/06/30 02:13:06;;;;;;;0.10;0.10;;;25.30;49.10;;;;;;5022370;28;20045;-61
2021/06/30 02:15:34;;;;;;;0.17;0.17;;;25.30;49.20;;;;;;5018765;28;20169;-61
2021/06/30 02:18:02;;;;;;;0.25;0.20;;;25.30;49.10;;;;;;5021023;28;20369;-60
2021/06/30 02:20:28;;;;;;;0.10;0.10;;;25.30;49.10;;;;;;5019979;28;20067;-60
2021/06/30 02:22:55;;;;;;;0.20;0.20;;;25.30;49.10;;;;;;5017980;28;20045;-58
2021/06/30 02:25:24;;;;;;;0.25;0.20;;;25.30;49.20;;;;;;5024426;28;20025;-59
2021/06/30 02:27:51;;;;;;;0.20;0.20;;;25.30;49.10;;;;;;5018915;28;20026;-60
2021/06/30 02:30:23;;;;;;;0.17;0.15;;;25.30;49.20;;;;;;5018691;28;20351;-58
2021/06/30 02:32:49;;;;;;;0.22;0.22;;;25.30;49.10;;;;;;5022908;28;20036;-59
2021/06/30 02:35:18;;;;;;;0.20;0.20;;;25.20;49.10;;;;;;5022975;28;20040;-59
2021/06/30 02:37:44;;;;;;;0.10;0.10;;;25.30;49.20;;;;;;5021858;28;20033;-59
2021/06/30 02:40:13;;;;;;;0.20;0.20;;;25.30;49.20;;;;;;5020260;28;20026;-59
2021/06/30 02:42:39;;;;;;;0.40;0.20;;;25.20;49.10;;;;;;5036106;28;20048;-56
2021/06/30 02:45:08;;;;;;;0.20;0.20;;;25.20;49.10;;;;;;5021901;28;20345;-60
2021/06/30 02:47:34;;;;;;;0.28;0.25;;;25.20;49.10;;;;;;5020252;28;20356;-60
2021/06/30 02:50:01;;;;;;;0.10;0.10;;;25.20;49.10;;;;;;5019807;28;20072;-60
2021/06/30 02:52:26;;;;;;;0.10;0.10;;;25.20;49.10;;;;;;5020913;28;20052;-61
2021/06/30 02:54:52;;;;;;;0.17;0.17;;;25.10;49.10;;;;;;5020563;28;20041;-62
2021/06/30 02:57:18;;;;;;;0.10;0.10;;;25.20;49.10;;;;;;5021633;28;20037;-61
2021/06/30 02:59:44;;;;;;;0.20;0.20;;;25.20;49.10;;;;;;5016891;28;20029;-60
2021/06/30 03:02:09;;;;;;;0.10;0.10;;;25.20;49.10;;;;;;5023974;28;20403;-61
2021/06/30 03:04:35;;;;;;;0.20;0.20;;;25.20;49.10;;;;;;5018246;28;20044;-59
2021/06/30 03:07:01;;;;;;;0.20;0.20;;;25.20;49.10;;;;;;5021740;28;20034;-60
2021/06/30 03:09:27;;;;;;;0.20;0.20;;;25.20;49.10;;;;;;5021860;28;20064;-58
2021/06/30 03:11:52;;;;;;;0.32;0.32;;;25.10;49.00;;;;;;5018998;28;20422;-59
2021/06/30 03:14:20;;;;;;;0.20;0.20;;;25.10;49.00;;;;;;5022662;28;20041;-61
2021/06/30 03:16:47;;;;;;;0.20;0.20;;;25.10;49.00;;;;;;5020664;28;20038;-58
2021/06/30 03:19:13;;;;;;;0.10;0.10;;;25.10;49.00;;;;;;5020209;28;20372;-58
2021/06/30 03:21:39;;;;;;;0.10;0.10;;;25.10;49.00;;;;;;5022635;28;20092;-57
2021/06/30 03:24:05;;;;;;;0.35;0.17;;;25.10;49.00;;;;;;5026231;28;20383;-61
2021/06/30 03:26:31;;;;;;;0.22;0.15;;;25.10;49.00;;;;;;5023749;28;20484;-60
2021/06/30 03:29:00;;;;;;;0.20;0.20;;;25.10;49.00;;;;;;5020261;28;20044;-61
2021/06/30 03:31:26;;;;;;;0.10;0.10;;;25.10;49.00;;;;;;5023518;28;20072;-60
2021/06/30 03:33:51;;;;;;;0.10;0.10;;;25.10;49.10;;;;;;5024835;28;20412;-60
2021/06/30 03:36:17;;;;;;;0.20;0.20;;;25.10;49.10;;;;;;5021569;28;20074;-59
2021/06/30 03:38:43;;;;;;;0.13;0.13;;;25.10;49.10;;;;;;5020999;28;20104;-60
2021/06/30 03:41:09;;;;;;;0.30;0.17;;;25.10;49.10;;;;;;5025586;28;20099;-60
2021/06/30 03:43:35;;;;;;;0.30;0.20;;;25.10;49.10;;;;;;5022117;28;21575;-59
2021/06/30 03:46:00;;;;;;;0.20;0.20;;;25.10;49.10;;;;;;5022589;28;20026;-60
2021/06/30 03:48:26;;;;;;;0.20;0.20;;;25.10;49.10;;;;;;5017621;28;20121;-60
2021/06/30 03:50:52;;;;;;;0.10;0.10;;;25.00;49.10;;;;;;5025005;28;20352;-59
2021/06/30 03:53:18;;;;;;;0.10;0.10;;;25.00;49.10;;;;;;5018903;28;20192;-61
2021/06/30 03:55:43;;;;;;;0.30;0.20;;;25.00;49.10;;;;;;5025680;28;20058;-60
2021/06/30 03:58:09;;;;;;;0.30;0.15;;;25.00;49.10;;;;;;5020770;28;20399;-59
2021/06/30 04:00:35;;;;;;;0.20;0.20;;;25.00;49.10;;;;;;5025693;28;20021;-60
2021/06/30 04:03:02;;;;;;;0.28;0.17;;;25.00;49.10;;;;;;5024611;28;20361;-60
2021/06/30 04:05:28;;;;;;;0.10;0.10;;;25.00;49.10;;;;;;5022978;28;20068;-57
2021/06/30 04:07:54;;;;;;;0.30;0.20;;;25.00;49.10;;;;;;5022942;28;20033;-60
2021/06/30 04:10:20;;;;;;;0.32;0.20;;;25.00;49.10;;;;;;5023678;28;20045;-61
2021/06/30 04:12:46;;;;;;;0.17;0.17;;;25.00;49.10;;;;;;5024253;28;20041;-60
2021/06/30 04:15:12;;;;;;;0.25;0.25;;;25.00;49.10;;;;;;5022154;28;20372;-58
2021/06/30 04:17:38;;;;;;;0.20;0.20;;;25.00;49.10;;;;;;5018903;28;20038;-60
2021/06/30 04:20:07;;;;;;;1.63;0.10;;;25.00;49.20;;;;;;5024154;28;20116;-57
2021/06/30 04:22:32;;;;;;;0.32;0.20;;;25.00;49.20;;;;;;5023521;28;20030;-59
2021/06/30 04:24:58;;;;;;;0.10;0.10;;;25.00;49.20;;;;;;5022907;28;20030;-60
2021/06/30 04:27:24;;;;;;;0.13;0.13;;;25.00;49.20;;;;;;5025202;28;20458;-60
2021/06/30 04:29:50;;;;;;;0.20;0.20;;;25.00;49.20;;;;;;5023286;28;20064;-60
2021/06/30 04:32:16;;;;;;;0.57;0.20;;;25.00;49.20;;;;;;5020720;28;20120;-60
2021/06/30 04:34:42;;;;;;;0.60;0.20;;;24.90;49.20;;;;;;5024102;28;20453;-57
2021/06/30 04:37:08;;;;;;;0.30;0.30;;;25.00;49.20;;;;;;5022658;28;20033;-60
2021/06/30 04:39:34;;;;;;;0.55;0.17;;;24.90;49.20;;;;;;5022304;28;20275;-60
2021/06/30 04:42:00;;;;;;;0.20;0.20;;;24.90;49.20;;;;;;5024302;28;20468;-58
2021/06/30 04:44:26;;;;;;;0.50;0.40;;;24.90;49.20;;;;;;5022401;28;20022;-61
2021/06/30 04:46:52;;;;;;;0.22;0.20;;;24.90;49.10;;;;;;5022279;28;20030;-59
2021/06/30 04:49:17;;;;;;;0.28;0.20;;;24.90;49.10;;;;;;5023900;28;20025;-60
2021/06/30 04:51:45;;;;;;;0.10;0.10;;;24.90;49.10;;;;;;5024007;28;20036;-58
2021/06/30 04:54:11;;;;;;;0.60;0.20;;;24.90;49.10;;;;;;5022487;28;20080;-58
2021/06/30 04:56:41;;;;;;;0.20;0.20;;;24.90;49.10;;;;;;5022157;28;20038;-58
2021/06/30 04:59:07;;;;;;;0.20;0.20;;;24.90;49.10;;;;;;5019386;28;20029;-58
2021/06/30 05:01:33;;;;;;;0.30;0.30;;;24.90;49.00;;;;;;5022875;28;20061;-60
2021/06/30 05:03:59;;;;;;;0.40;0.32;;;24.90;49.00;;;;;;5021508;28;20095;-59
2021/06/30 05:06:25;;;;;;;0.30;0.30;;;24.80;49.00;;;;;;5023882;28;20429;-59
2021/06/30 05:08:51;;;;;;;0.30;0.30;;;24.90;49.00;;;;;;5021379;28;20059;-59
2021/06/30 05:11:17;;;;;;;0.30;0.25;;;24.80;48.90;;;;;;5016574;28;20028;-59
2021/06/30 05:13:43;;;;;;;0.30;0.30;;;24.80;49.00;;;;;;5022346;28;20573;-59
2021/06/30 05:16:08;;;;;;;0.30;0.30;;;24.80;49.00;;;;;;5022422;28;20040;-59
2021/06/30 05:18:34;;;;;;;0.63;0.60;;;24.90;49.00;;;;;;5019959;28;20506;-59
2021/06/30 05:21:00;;;;;;;0.90;0.70;;;24.80;49.00;;;;;;5020959;28;20036;-60
2021/06/30 05:23:26;;;;;;;0.70;0.70;;;24.80;49.00;;;;;;5020463;28;20025;-60
2021/06/30 05:25:52;;;;;;;0.90;0.70;;;24.80;49.00;;;;;;5024041;28;20116;-60
2021/06/30 05:28:17;;;;;;;1.08;0.80;;;24.80;49.00;;;;;;5017988;28;20021;-59
2021/06/30 05:30:43;;;;;;;0.95;0.80;;;24.80;49.00;;;;;;5017995;28;20021;-60
2021/06/30 05:33:09;;;;;;;1.27;0.70;;;24.80;49.00;;;;;;5022414;28;20357;-60
2021/06/30 05:35:35;;;;;;;1.10;0.70;;;24.80;49.00;;;;;;5025207;28;20021;-61
2021/06/30 05:38:01;;;;;;;1.10;0.82;;;24.80;49.00;;;;;;5022962;28;20021;-59
2021/06/30 05:40:26;;;;;;;1.05;0.80;;;24.80;49.00;;;;;;5021863;28;20037;-56
2021/06/30 05:42:54;;;;;;;1.85;0.75;;;24.80;49.10;;;;;;5021395;28;20421;-61
2021/06/30 05:45:21;;;;;;;0.50;0.50;;;24.80;49.10;;;;;;5024209;28;20041;-58
2021/06/30 05:47:47;;;;;;;0.82;0.60;;;24.80;49.10;;;;;;5020429;28;20022;-60
2021/06/30 05:50:14;;;;;;;1.02;0.75;;;24.80;49.10;;;;;;5024472;28;20049;-58
2021/06/30 05:52:41;;;;;;;1.08;0.60;;;24.80;49.10;;;;;;5018021;28;20037;-61
2021/06/30 05:55:08;;;;;;;0.50;0.50;;;24.80;49.80;;;;;;5021826;28;20034;-56
2021/06/30 05:57:34;;;;;;;0.45;0.45;;;24.70;49.10;;;;;;5030661;28;20453;-61
2021/06/30 05:59:59;;;;;;;0.45;0.45;;;24.80;49.20;;;;;;5019274;28;20044;-62
2021/06/30 06:02:25;;;;;;;0.40;0.40;;;24.80;49.20;;;;;;5017036;28;20112;-59
2021/06/30 06:04:51;;;;;;;0.50;0.40;;;24.70;49.20;;;;;;5023487;28;20037;-59
2021/06/30 06:07:17;;;;;;;0.40;0.40;;;24.70;49.20;;;;;;5022155;28;20442;-61
2021/06/30 06:09:43;;;;;;;0.68;0.60;;;24.70;49.20;;;;;;5021133;28;20084;-60
2021/06/30 06:12:09;;;;;;;0.45;0.30;;;24.70;49.20;;;;;;5022796;28;20087;-62
2021/06/30 06:14:34;;;;;;;0.40;0.40;;;24.70;49.20;;;;;;5021772;28;20088;-60
2021/06/30 06:17:00;;;;;;;0.45;0.45;;;24.70;49.20;;;;;;5022361;28;20025;-60
2021/06/30 06:19:26;;;;;;;0.65;0.45;;;24.70;49.20;;;;;;5021908;28;20022;-59
2021/06/30 06:21:52;;;;;;;0.30;0.30;;;24.70;49.30;;;;;;5019086;28;20030;-61
2021/06/30 06:24:18;;;;;;;0.85;0.50;;;24.70;49.30;;;;;;5019727;28;20026;-60
2021/06/30 06:26:44;;;;;;;0.40;0.40;;;24.70;49.30;;;;;;5022358;28;20087;-59
2021/06/30 06:29:10;;;;;;;0.30;0.30;;;24.70;49.30;;;;;;5020749;28;20033;-59
2021/06/30 06:31:37;;;;;;;0.40;0.40;;;24.70;49.30;;;;;;5020961;28;20026;-59
2021/06/30 06:34:03;;;;;;;0.30;0.30;;;24.70;49.30;;;;;;5022971;28;20109;-61
2021/06/30 06:36:29;;;;;;;0.60;0.40;;;24.70;49.30;;;;;;5020549;28;20137;-56
2021/06/30 06:38:54;;;;;;;0.43;0.30;;;24.70;49.30;;;;;;5018829;28;20424;-61
2021/06/30 06:41:20;;;;;;;0.40;0.30;;;24.70;49.30;;;;;;5012252;28;20177;-59
2021/06/30 06:43:46;;;;;;;0.40;0.40;;;24.70;49.30;;;;;;5014304;28;20088;-54
2021/06/30 06:46:12;;;;;;;0.40;0.30;;;24.70;49.40;;;;;;5012424;28;20134;-63
2021/06/30 06:48:38;;;;;;;0.60;0.30;;;24.70;49.40;;;;;;5016627;28;20131;-62
2021/06/30 06:51:04;;;;;;;0.40;0.40;;;24.70;49.50;;;;;;5012714;28;20026;-56
2021/06/30 06:53:30;;;;;;;0.35;0.35;;;24.70;49.50;;;;;;5005002;28;20038;-58
2021/06/30 06:55:58;;;;;;;0.70;0.35;;;24.70;49.60;;;;;;5016440;28;20445;-60
2021/06/30 06:58:24;;;;;;;0.40;0.40;;;24.70;49.70;;;;;;5014898;28;20449;-58
2021/06/30 07:00:50;;;;;;;0.55;0.50;;;24.70;49.90;;;;;;5007959;28;20037;-58
2021/06/30 07:03:15;;;;;;;0.30;0.30;;;24.80;50.00;;;;;;5013820;28;20077;-59
2021/06/30 07:05:41;;;;;;;0.40;0.40;;;24.80;50.00;;;;;;5025542;28;20048;-57
2021/06/30 07:08:07;;;;;;;0.50;0.50;;;24.80;50.00;;;;;;5024316;28;20115;-56
2021/06/30 07:10:33;;;;;;;0.60;0.50;;;24.80;50.00;;;;;;5017169;28;20025;-59
2021/06/30 07:12:59;;;;;;;0.63;0.55;;;24.90;50.00;;;;;;5012738;28;20026;-58
2021/06/30 07:15:25;;;;;;;0.40;0.40;;;24.90;50.00;;;;;;5012650;28;20026;-57
2021/06/30 07:17:50;;;;;;;0.70;0.70;;;25.00;50.00;;;;;;5007308;28;20189;-56
2021/06/30 07:20:16;;;;;;;0.50;0.50;;;25.00;49.90;;;;;;5011020;28;20136;-58
2021/06/30 07:22:42;;;;;;;0.52;0.52;;;25.10;49.90;;;;;;5003747;28;20046;-61
2021/06/30 07:25:09;;;;;;;0.40;0.40;;;25.10;49.90;;;;;;5007199;28;20034;-62
2021/06/30 07:27:35;;;;;;;0.77;0.60;;;25.10;49.80;;;;;;5005787;28;20100;-54
2021/06/30 07:30:01;;;;;;;0.50;0.40;;;25.10;49.70;;;;;;5003732;28;20373;-62
2021/06/30 07:32:29;;;;;;;0.60;0.50;;;25.20;49.80;;;;;;5005719;28;20532;-60
2021/06/30 07:34:55;;;;;;;0.52;0.50;;;25.20;49.70;;;;;;5008111;28;20049;-60
2021/06/30 07:37:21;;;;;;;0.35;0.32;;;25.30;49.70;;;;;;5015633;28;20029;-60
2021/06/30 07:39:47;;;;;;;0.52;0.52;;;25.30;49.60;;;;;;5007387;28;20026;-65
2021/06/30 07:42:13;;;;;;;0.50;0.50;;;25.30;49.60;;;;;;5006765;28;20042;-63
2021/06/30 07:44:39;;;;;;;0.45;0.45;;;25.30;49.60;;;;;;5005971;28;20379;-61
2021/06/30 07:47:05;;;;;;;0.63;0.50;;;25.30;49.60;;;;;;5018162;28;20232;-65
2021/06/30 07:49:30;;;;;;;0.50;0.50;;;25.40;49.60;;;;;;5024996;28;20022;-60
2021/06/30 07:51:56;;;;;;;0.60;0.55;;;25.40;49.50;;;;;;5024964;28;20017;-61
2021/06/30 07:54:22;;;;;;;0.40;0.40;;;25.40;49.50;;;;;;5025522;28;20033;-63
2021/06/30 07:56:48;;;;;;;0.40;0.40;;;25.40;49.40;;;;;;5022986;28;20082;-62
2021/06/30 07:59:13;;;;;;;0.68;0.60;;;25.40;49.30;;;;;;5023727;28;20062;-64
2021/06/30 08:01:41;;;;;;;0.40;0.40;;;25.40;49.20;;;;;;5024947;28;20041;-61
2021/06/30 08:04:07;;;;;;;0.40;0.40;;;25.40;49.20;;;;;;5023209;28;20057;-60
2021/06/30 08:06:36;;;;;;;0.40;0.40;;;25.40;49.10;;;;;;5025623;28;20029;-61
2021/06/30 08:09:04;;;;;;;0.68;0.60;;;25.50;49.20;;;;;;5017682;28;20441;-62
2021/06/30 08:11:30;;;;;;;0.40;0.40;;;25.40;49.10;;;;;;5006046;28;20357;-63
2021/06/30 08:13:57;;;;;;;0.40;0.38;;;25.40;49.00;;;;;;5026285;28;20096;-65
2021/06/30 08:16:24;;;;;;;0.30;0.30;;;25.40;49.00;;;;;;5022899;28;20026;-62
2021/06/30 08:18:50;;;;;;;0.50;0.40;;;25.50;49.00;;;;;;4998885;28;20145;-62
2021/06/30 08:21:16;;;;;;;0.35;0.35;;;25.40;48.90;;;;;;5019337;28;20041;-61
2021/06/30 08:23:44;;;;;;;0.35;0.35;;;25.40;48.90;;;;;;4998574;28;20069;-63
2021/06/30 08:26:12;;;;;;;0.40;0.40;;;25.50;48.90;;;;;;5001001;28;20053;-63
2021/06/30 08:28:39;;;;;;;0.40;0.40;;;25.50;48.80;;;;;;5001109;28;20124;-60
2021/06/30 08:31:05;;;;;;;0.35;0.35;;;25.40;48.70;;;;;;5002058;28;20018;-61
2021/06/30 08:33:31;;;;;;;0.40;0.40;;;25.50;48.70;;;;;;5002933;28;20064;-63
2021/06/30 08:35:57;;;;;;;0.50;0.45;;;25.50;48.70;;;;;;5023497;28;20029;-62
2021/06/30 08:38:23;;;;;;;0.52;0.25;;;25.50;48.70;;;;;;5022633;28;20033;-62
2021/06/30 08:40:57;;;;;;;0.55;0.40;;;25.50;48.70;;;;;;5025645;28;20033;-62
2021/06/30 08:43:24;;;;;;;0.30;0.30;;;25.50;48.70;;;;;;5005088;28;20030;-63
2021/06/30 08:45:50;;;;;;;0.50;0.50;;;25.50;48.70;;;;;;5004022;28;20066;-61
2021/06/30 08:48:16;;;;;;;0.30;0.30;;;25.50;48.70;;;;;;5000360;28;20365;-62
2021/06/30 08:50:47;;;;;;;0.30;0.30;;;25.50;48.70;;;;;;5005986;28;20044;-62
2021/06/30 08:53:15;;;;;;;0.20;0.20;;;25.50;48.70;;;;;;5004958;28;20022;-62
2021/06/30 08:55:44;;;;;;;0.68;0.40;;;25.50;48.70;;;;;;5001024;28;20023;-61
2021/06/30 08:58:12;;;;;;;0.30;0.30;;;25.50;48.70;;;;;;4998806;28;20061;-61
2021/06/30 09:00:41;;;;;;;0.40;0.40;;;25.50;48.70;;;;;;4999772;28;20434;-60
2021/06/30 09:03:14;;;;;;;0.45;0.35;;;25.50;48.70;;;;;;5001924;28;20022;-64
2021/06/30 09:06:11;;;;;;;0.30;0.30;;;25.50;48.70;;;;;;4999450;28;20091;-62
2021/06/30 09:08:43;;;;;;;;;;;25.50;48.70;;;;;;5021741;28;20037;-62
2021/06/30 09:11:10;;;;;;;0.30;0.30;;;25.50;48.70;;;;;;5024265;28;19909;-61
2021/06/30 09:13:36;;;;;;;0.20;0.20;;;25.50;48.70;;;;;;5023641;28;20029;-61
2021/06/30 09:16:03;;;;;;;0.40;0.40;;;25.50;48.70;;;;;;5017303;28;20026;-63
2021/06/30 09:18:33;;;;;;;0.32;0.32;;;25.50;48.70;;;;;;5003458;28;20046;-61
2021/06/30 09:21:24;;;;;;;0.57;0.30;;;25.50;48.70;;;;;;5003515;28;20343;-62
2021/06/30 09:24:17;;;;;;;0.22;0.22;;;25.50;48.70;;;;;;5001626;28;20026;-64
2021/06/30 09:26:49;;;;;;;0.30;0.30;;;25.50;48.70;;;;;;4999026;28;20506;-60
2021/06/30 09:29:15;;;;;;;0.25;0.25;;;25.50;48.70;;;;;;5000462;28;20361;-64
2021/06/30 09:31:44;;;;;;;0.40;0.30;;;25.50;48.70;;;;;;5004323;28;20041;-62
2021/06/30 09:34:10;;;;;;;0.65;0.50;;;25.50;48.70;;;;;;4998334;28;20042;-64
2021/06/30 09:36:56;;;;;;;0.45;0.30;;;25.50;48.70;;;;;;4998896;28;20122;-61
2021/06/30 09:39:22;;;;;;;0.30;0.30;;;25.50;48.70;;;;;;4998893;28;20037;-60
2021/06/30 09:41:49;;;;;;;0.22;0.22;;;25.50;48.70;;;;;;5005477;28;20115;-61
2021/06/30 09:44:20;;;;;;;0.50;0.30;;;25.50;48.70;;;;;;5018956;28;20124;-61
2021/06/30 09:46:48;;;;;;;0.20;0.20;;;25.50;48.70;;;;;;5022444;28;20037;-62
2021/06/30 09:49:16;;;;;;;0.25;0.25;;;25.50;48.70;;;;;;5019440;28;20025;-59
2021/06/30 09:51:44;;;;;;;0.55;0.20;;;25.50;48.70;;;;;;5023269;28;20038;-60
2021/06/30 09:54:10;;;;;;;0.98;0.55;;;25.50;48.70;;;;;;5020605;28;20392;-64
2021/06/30 09:56:38;;;;;;;0.30;0.30;;;25.50;48.70;;;;;;5023494;28;20431;-62
2021/06/30 09:59:23;;;;;;;0.30;0.30;;;25.50;48.70;;;;;;5021009;28;20029;-60
2021/06/30 10:02:00;;;;;;;0.30;0.30;;;25.50;48.70;;;;;;5035671;28;20456;-59
2021/06/30 10:04:32;;;;;;;0.47;0.47;;;25.50;48.70;;;;;;5020948;28;20026;-61
2021/06/30 10:07:02;;;;;;;0.30;0.30;;;25.50;48.70;;;;;;5020787;28;20030;-61
2021/06/30 10:09:30;;;;;;;0.40;0.30;;;25.50;48.70;;;;;;5020123;28;20022;-60
2021/06/30 10:12:08;;;;;;;0.30;0.30;;;25.50;48.70;;;;;;5015149;28;20018;-55
2021/06/30 10:14:35;;;;;;;0.22;0.22;;;25.50;48.70;;;;;;4998870;28;20042;-53
2021/06/30 10:17:02;;;;;;;0.68;0.30;;;25.50;48.70;;;;;;5001706;28;20018;-59
2021/06/30 10:19:29;;;;;;;0.40;0.40;;;25.50;48.70;;;;;;4999538;28;20026;-61
2021/06/30 10:21:56;;;;;;;0.30;0.30;;;25.50;48.70;;;;;;5020213;28;20044;-60
2021/06/30 10:24:22;;;;;;;0.32;0.32;;;25.50;48.70;;;;;;5019673;28;20044;-60
2021/06/30 10:26:48;;;;;;;0.30;0.30;;;25.60;48.80;;;;;;5021198;28;20044;-60
2021/06/30 10:29:15;;;;;;;0.28;0.28;;;25.60;48.80;;;;;;5021273;28;20022;-60
2021/06/30 10:31:42;;;;;;;0.28;0.28;;;25.60;48.90;;;;;;5020956;28;20069;-60
2021/06/30 10:34:13;;;;;;;1.40;0.45;;;25.60;48.90;;;;;;5020557;28;20045;-61
2021/06/30 10:36:47;;;;;;;0.55;0.35;;;25.60;48.90;;;;;;5017046;28;20033;-61
2021/06/30 10:39:39;;;;;;;0.30;0.30;;;25.60;48.90;;;;;;5001119;28;20172;-57
2021/06/30 10:42:21;;;;;;;0.50;0.30;;;25.60;48.90;;;;;;5001843;28;20033;-63
2021/06/30 10:44:54;;;;;;;0.57;0.35;;;25.60;48.90;;;;;;5002583;28;20119;-62
2021/06/30 10:47:32;;;;;;;0.35;0.35;;;25.60;48.90;;;;;;4996190;28;20113;-59
2021/06/30 10:50:19;;;;;;;0.20;0.20;;;25.60;48.90;;;;;;5006950;28;20121;-62
2021/06/30 10:52:48;;;;;;;0.45;0.40;;;25.60;48.90;;;;;;5012356;28;20412;-61
2021/06/30 10:55:32;;;;;;;0.30;0.30;;;25.60;49.10;;;;;;5024831;28;20033;-60
2021/06/30 11:00:40;;;;;;;0.52;0.40;;;25.60;49.10;;;;;;5008872;28;20117;-56
2021/06/30 11:03:27;;;;;;;0.47;0.30;;;25.60;49.20;;;;;;5013216;28;20033;-55
2021/06/30 11:06:30;;;;;;;0.40;0.20;;;25.70;49.30;;;;;;5013545;28;20034;-58
2021/06/30 11:09:05;;;;;;;0.40;0.40;;;25.70;49.30;;;;;;5009187;28;20477;-57
2021/06/30 11:11:34;;;;;;;0.40;0.30;;;25.80;49.40;;;;;;5023302;28;20037;-57
2021/06/30 11:14:00;;;;;;;0.30;0.30;;;25.80;49.40;;;;;;5011345;28;20549;-61
2021/06/30 11:16:47;;;;;;;0.30;0.30;;;25.80;49.40;;;;;;5015407;28;20079;-59
2021/06/30 11:19:19;;;;;;;0.38;0.38;;;25.80;49.40;;;;;;5010316;28;20055;-56
2021/06/30 11:21:46;;;;;;;0.55;0.55;;;25.80;49.40;;;;;;5003932;28;20034;-61
2021/06/30 11:24:40;;;;;;;1.05;0.60;;;25.80;49.40;;;;;;4998673;28;20108;-61
2021/06/30 11:27:06;;;;;;;2.05;0.40;;;25.80;49.30;;;;;;5023897;28;20120;-60
2021/06/30 11:30:08;;;;;;;0.47;0.30;;;25.80;49.40;;;;;;5033740;28;20458;-61
2021/06/30 11:32:42;;;;;;;0.40;0.38;;;25.80;49.30;;;;;;5014361;28;20113;-61
2021/06/30 11:35:24;;;;;;;;;;;25.80;49.30;;;;;;5014190;28;20335;-58
2021/06/30 11:37:58;;;;;;;0.32;0.32;;;25.80;49.30;;;;;;5013602;28;19932;-62
2021/06/30 11:40:30;;;;;;;0.28;0.28;;;25.80;49.30;;;;;;5013744;28;20038;-60
2021/06/30 11:42:58;;;;;;;0.43;0.30;;;25.80;49.30;;;;;;5017378;28;20025;-58
2021/06/30 11:45:34;;;;;;;0.30;0.30;;;25.80;49.20;;;;;;5018089;28;20516;-58
2021/06/30 11:48:03;;;;;;;0.47;0.43;;;25.80;49.20;;;;;;5017527;28;20034;-60
2021/06/30 11:50:32;;;;;;;0.50;0.50;;;25.80;49.10;;;;;;5023668;28;20405;-59
2021/06/30 11:52:59;;;;;;;0.63;0.50;;;25.80;49.10;;;;;;4997624;28;20038;-55
2021/06/30 11:55:38;;;;;;;0.50;0.50;;;25.80;49.00;;;;;;4997826;28;20410;-59
2021/06/30 11:58:04;;;;;;;0.50;0.50;;;25.80;48.90;;;;;;4997502;28;20034;-60
2021/06/30 12:00:33;;;;;;;0.50;0.50;;;25.80;48.90;;;;;;4997315;28;20096;-60
2021/06/30 12:03:01;;;;;;;0.50;0.50;;;25.80;48.90;;;;;;5002328;28;20081;-60
2021/06/30 12:05:29;;;;;;;0.85;0.43;;;25.80;48.90;;;;;;5023712;28;20033;-59
2021/06/30 12:07:56;;;;;;;0.35;0.35;;;25.80;48.90;;;;;;5003496;28;20413;-61
2021/06/30 12:10:30;;;;;;;0.40;0.40;;;25.80;48.90;;;;;;4997153;28;20085;-55
2021/06/30 12:12:57;;;;;;;0.88;0.52;;;25.80;48.90;;;;;;4997203;28;20069;-59
2021/06/30 12:15:23;;;;;;;0.65;0.50;;;25.80;48.90;;;;;;5009083;28;20129;-58
2021/06/30 12:17:52;;;;;;;0.50;0.47;;;25.80;48.90;;;;;;5016088;28;20088;-56
2021/06/30 12:20:21;;;;;;;0.80;0.80;;;25.80;48.90;;;;;;5034873;28;20116;-59
2021/06/30 12:22:47;;;;;;;0.70;0.70;;;25.80;48.80;;;;;;5035462;28;20140;-60
2021/06/30 12:25:16;;;;;;;0.63;0.52;;;25.80;48.80;;;;;;5032299;28;20044;-59
2021/06/30 12:27:52;;;;;;;0.70;0.70;;;25.80;48.80;;;;;;5016354;28;20124;-62
2021/06/30 12:30:20;;;;;;;0.80;0.65;;;25.80;48.70;;;;;;5015923;28;20044;-58
2021/06/30 12:32:57;;;;;;;0.73;0.57;;;25.80;48.80;;;;;;4996764;28;20084;-59
2021/06/30 12:35:47;;;;;;;0.68;0.52;;;25.80;48.70;;;;;;4996711;28;20361;-58
2021/06/30 12:38:23;;;;;;;0.60;0.60;;;25.80;48.70;;;;;;4995490;28;20106;-57
2021/06/30 12:41:02;;;;;;;0.85;0.77;;;25.80;48.70;;;;;;4997751;28;20178;-61
2021/06/30 12:43:27;;;;;;;0.57;0.57;;;25.80;48.80;;;;;;5016076;28;20120;-58
2021/06/30 12:45:54;;;;;;;0.80;0.70;;;25.80;48.80;;;;;;5024267;28;20104;-60
2021/06/30 12:48:27;;;;;;;0.60;0.50;;;25.80;48.80;;;;;;5018403;28;20342;-59
2021/06/30 12:50:56;;;;;;;0.67;0.67;;;25.80;48.80;;;;;;5033829;28;20471;-58
2021/06/30 12:53:28;;;;;;;0.80;0.70;;;25.80;48.80;;;;;;5015265;28;20022;-59
2021/06/30 12:56:09;;;;;;;0.52;0.52;;;25.80;48.80;;;;;;5015974;28;20116;-60